sensor_id;sensor_type;location;lat;lon;timestamp;pressure;altitude;pressure_sealevel;temperature;humidity
80747;BME280;70144;50.218;14.322;2023-09-30T00:02:25;99415.06;;;19.20;62.80
80747;BME280;70144;50.218;14.322;2023-09-30T00:04:51;99420.28;;;19.21;63.55
80747;BME280;70144;50.218;14.322;2023-09-30T00:07:17;99416.84;;;19.24;63.50
80747;BME280;70144;50.218;14.322;2023-09-30T00:09:42;99401.03;;;19.16;63.72
80747;BME280;70144;50.218;14.322;2023-09-30T00:12:08;99405.59;;;19.21;63.36
80747;BME280;70144;50.218;14.322;2023-09-30T00:14:34;99403.66;;;19.21;63.46
80747;BME280;70144;50.218;14.322;2023-09-30T00:16:59;99392.53;;;19.21;62.17
80747;BME280;70144;50.218;14.322;2023-09-30T00:19:25;99422.53;;;19.28;63.26
80747;BME280;70144;50.218;14.322;2023-09-30T00:21:51;99415.97;;;19.32;62.25
80747;BME280;70144;50.218;14.322;2023-09-30T00:24:16;99400.38;;;19.19;62.49
80747;BME280;70144;50.218;14.322;2023-09-30T00:26:41;99423.66;;;19.27;62.60
80747;BME280;70144;50.218;14.322;2023-09-30T00:29:07;99401.91;;;19.08;62.72
80747;BME280;70144;50.218;14.322;2023-09-30T00:31:32;99423.84;;;19.22;62.83
80747;BME280;70144;50.218;14.322;2023-09-30T00:33:57;99400.91;;;19.12;62.41
80747;BME280;70144;50.218;14.322;2023-09-30T00:36:23;99400.63;;;19.05;63.91
80747;BME280;70144;50.218;14.322;2023-09-30T00:38:48;99410.91;;;19.05;63.16
80747;BME280;70144;50.218;14.322;2023-09-30T00:41:14;99404.25;;;18.97;63.13
80747;BME280;70144;50.218;14.322;2023-09-30T00:43:39;99410.91;;;19.05;62.79
80747;BME280;70144;50.218;14.322;2023-09-30T00:48:46;99427.53;;;19.05;62.60
80747;BME280;70144;50.218;14.322;2023-09-30T00:51:12;99401.66;;;18.92;62.46
80747;BME280;70144;50.218;14.322;2023-09-30T00:53:38;99412.06;;;18.95;61.66
80747;BME280;70144;50.218;14.322;2023-09-30T00:56:03;99425.13;;;18.95;63.00
80747;BME280;70144;50.218;14.322;2023-09-30T00:58:29;99414.56;;;18.80;62.23
80747;BME280;70144;50.218;14.322;2023-09-30T01:00:56;99431.38;;;18.83;62.21
80747;BME280;70144;50.218;14.322;2023-09-30T01:03:22;99431.88;;;18.77;63.25
80747;BME280;70144;50.218;14.322;2023-09-30T01:05:48;99439.53;;;18.80;62.70
80747;BME280;70144;50.218;14.322;2023-09-30T01:08:15;99440.03;;;18.73;62.67
80747;BME280;70144;50.218;14.322;2023-09-30T01:10:41;99422.13;;;18.71;62.38
80747;BME280;70144;50.218;14.322;2023-09-30T01:13:07;99433.88;;;18.67;62.77
80747;BME280;70144;50.218;14.322;2023-09-30T01:15:32;99431.44;;;18.57;62.96
80747;BME280;70144;50.218;14.322;2023-09-30T01:17:57;99451.16;;;18.64;62.31
80747;BME280;70144;50.218;14.322;2023-09-30T01:20:23;99445.94;;;18.63;62.57
80747;BME280;70144;50.218;14.322;2023-09-30T01:22:49;99456.22;;;18.62;62.39
80747;BME280;70144;50.218;14.322;2023-09-30T01:25:14;99423.31;;;18.35;63.21
80747;BME280;70144;50.218;14.322;2023-09-30T01:27:40;99446.63;;;18.51;63.21
80747;BME280;70144;50.218;14.322;2023-09-30T01:30:05;99450.38;;;18.55;62.78
80747;BME280;70144;50.218;14.322;2023-09-30T01:32:31;99457.19;;;18.58;63.33
80747;BME280;70144;50.218;14.322;2023-09-30T01:34:56;99455.22;;;18.50;63.01
80747;BME280;70144;50.218;14.322;2023-09-30T01:37:22;99449.53;;;18.46;63.22
80747;BME280;70144;50.218;14.322;2023-09-30T01:39:47;99446.28;;;18.44;62.68
80747;BME280;70144;50.218;14.322;2023-09-30T01:42:15;99460.59;;;18.46;63.35
80747;BME280;70144;50.218;14.322;2023-09-30T01:44:41;99466.81;;;18.43;63.74
80747;BME280;70144;50.218;14.322;2023-09-30T01:47:06;99452.47;;;18.41;62.55
80747;BME280;70144;50.218;14.322;2023-09-30T01:49:31;99464.69;;;18.40;63.33
80747;BME280;70144;50.218;14.322;2023-09-30T01:51:57;99466.16;;;18.38;63.37
80747;BME280;70144;50.218;14.322;2023-09-30T01:54:22;99444.03;;;18.29;63.20
80747;BME280;70144;50.218;14.322;2023-09-30T01:56:47;99464.88;;;18.27;63.37
80747;BME280;70144;50.218;14.322;2023-09-30T01:59:13;99470.44;;;18.18;64.01
80747;BME280;70144;50.218;14.322;2023-09-30T02:01:38;99471.41;;;18.13;64.41
80747;BME280;70144;50.218;14.322;2023-09-30T02:04:03;99467.31;;;18.02;64.88
80747;BME280;70144;50.218;14.322;2023-09-30T02:06:31;99482.13;;;17.98;65.14
80747;BME280;70144;50.218;14.322;2023-09-30T02:08:57;99473.50;;;17.91;65.24
80747;BME280;70144;50.218;14.322;2023-09-30T02:11:22;99483.44;;;17.92;65.41
80747;BME280;70144;50.218;14.322;2023-09-30T02:13:47;99469.59;;;17.83;65.06
80747;BME280;70144;50.218;14.322;2023-09-30T02:16:13;99465.66;;;17.93;64.73
80747;BME280;70144;50.218;14.322;2023-09-30T02:18:39;99485.41;;;17.91;65.12
80747;BME280;70144;50.218;14.322;2023-09-30T02:21:06;99485.38;;;17.83;65.15
80747;BME280;70144;50.218;14.322;2023-09-30T02:23:33;99492.38;;;17.71;64.91
80747;BME280;70144;50.218;14.322;2023-09-30T02:25:58;99480.44;;;17.62;65.05
80747;BME280;70144;50.218;14.322;2023-09-30T02:28:23;99500.16;;;17.69;66.00
80747;BME280;70144;50.218;14.322;2023-09-30T02:30:49;99493.31;;;17.67;65.35
80747;BME280;70144;50.218;14.322;2023-09-30T02:33:14;99503.44;;;17.71;65.57
80747;BME280;70144;50.218;14.322;2023-09-30T02:35:43;99494.78;;;17.64;65.46
80747;BME280;70144;50.218;14.322;2023-09-30T02:38:10;99500.97;;;17.61;65.65
80747;BME280;70144;50.218;14.322;2023-09-30T02:40:36;99507.97;;;17.67;65.67
80747;BME280;70144;50.218;14.322;2023-09-30T02:43:01;99508.78;;;17.59;65.91
80747;BME280;70144;50.218;14.322;2023-09-30T02:45:27;99509.53;;;17.51;66.02
80747;BME280;70144;50.218;14.322;2023-09-30T02:47:52;99489.13;;;17.30;66.19
80747;BME280;70144;50.218;14.322;2023-09-30T02:50:17;99519.44;;;17.44;66.10
80747;BME280;70144;50.218;14.322;2023-09-30T02:52:43;99520.84;;;17.33;66.34
80747;BME280;70144;50.218;14.322;2023-09-30T02:55:09;99510.22;;;17.17;66.86
80747;BME280;70144;50.218;14.322;2023-09-30T02:57:35;99535.56;;;17.11;66.94
80747;BME280;70144;50.218;14.322;2023-09-30T03:00:06;99543.97;;;17.06;67.77
80747;BME280;70144;50.218;14.322;2023-09-30T03:02:52;99537.44;;;17.02;67.62
80747;BME280;70144;50.218;14.322;2023-09-30T03:05:18;99535.97;;;16.96;67.72
80747;BME280;70144;50.218;14.322;2023-09-30T03:07:44;99519.78;;;16.81;67.99
80747;BME280;70144;50.218;14.322;2023-09-30T03:10:10;99540.56;;;16.78;67.88
80747;BME280;70144;50.218;14.322;2023-09-30T03:12:38;99548.59;;;16.88;67.94
80747;BME280;70144;50.218;14.322;2023-09-30T03:15:04;99550.31;;;16.75;68.51
80747;BME280;70144;50.218;14.322;2023-09-30T03:17:30;99533.41;;;16.55;68.27
80747;BME280;70144;50.218;14.322;2023-09-30T03:19:57;99554.56;;;16.59;68.36
80747;BME280;70144;50.218;14.322;2023-09-30T03:22:23;99557.34;;;16.59;68.81
80747;BME280;70144;50.218;14.322;2023-09-30T03:24:48;99566.13;;;16.61;68.91
80747;BME280;70144;50.218;14.322;2023-09-30T03:27:13;99539.78;;;16.42;69.35
80747;BME280;70144;50.218;14.322;2023-09-30T03:29:40;99566.34;;;16.51;68.50
80747;BME280;70144;50.218;14.322;2023-09-30T03:32:06;99559.31;;;16.45;69.29
80747;BME280;70144;50.218;14.322;2023-09-30T03:34:33;99563.31;;;16.39;69.31
80747;BME280;70144;50.218;14.322;2023-09-30T03:37:01;99578.16;;;16.43;69.83
80747;BME280;70144;50.218;14.322;2023-09-30T03:39:26;99584.47;;;16.44;69.53
80747;BME280;70144;50.218;14.322;2023-09-30T03:41:54;99555.63;;;16.36;69.74
80747;BME280;70144;50.218;14.322;2023-09-30T03:44:21;99590.22;;;16.47;69.38
80747;BME280;70144;50.218;14.322;2023-09-30T03:46:48;99591.97;;;16.43;69.27
80747;BME280;70144;50.218;14.322;2023-09-30T03:49:15;99598.41;;;16.39;69.80
80747;BME280;70144;50.218;14.322;2023-09-30T03:51:40;99602.09;;;16.34;70.32
80747;BME280;70144;50.218;14.322;2023-09-30T03:54:06;99614.66;;;16.40;70.52
80747;BME280;70144;50.218;14.322;2023-09-30T03:56:31;99617.44;;;16.40;70.69
80747;BME280;70144;50.218;14.322;2023-09-30T03:58:56;99624.69;;;16.36;70.71
80747;BME280;70144;50.218;14.322;2023-09-30T04:01:22;99615.09;;;16.33;71.28
80747;BME280;70144;50.218;14.322;2023-09-30T04:03:48;99625.59;;;16.45;69.62
80747;BME280;70144;50.218;14.322;2023-09-30T04:06:14;99635.41;;;16.51;70.19
80747;BME280;70144;50.218;14.322;2023-09-30T04:08:40;99639.81;;;16.52;70.09
80747;BME280;70144;50.218;14.322;2023-09-30T04:11:05;99620.09;;;16.45;70.48
80747;BME280;70144;50.218;14.322;2023-09-30T04:13:31;99655.25;;;16.67;70.58
80747;BME280;70144;50.218;14.322;2023-09-30T04:15:57;99645.66;;;16.64;69.96
80747;BME280;70144;50.218;14.322;2023-09-30T04:18:25;99651.56;;;16.71;69.63
80747;BME280;70144;50.218;14.322;2023-09-30T04:20:52;99660.56;;;16.77;70.71
80747;BME280;70144;50.218;14.322;2023-09-30T04:23:17;99662.88;;;16.84;71.06
80747;BME280;70144;50.218;14.322;2023-09-30T04:25:45;99672.00;;;16.84;71.37
80747;BME280;70144;50.218;14.322;2023-09-30T04:28:12;99660.22;;;16.78;71.62
80747;BME280;70144;50.218;14.322;2023-09-30T04:30:38;99670.47;;;16.78;71.82
80747;BME280;70144;50.218;14.322;2023-09-30T04:33:04;99690.28;;;16.94;72.10
80747;BME280;70144;50.218;14.322;2023-09-30T04:35:30;99696.44;;;16.91;72.56
80747;BME280;70144;50.218;14.322;2023-09-30T04:37:56;99686.66;;;16.71;74.49
80747;BME280;70144;50.218;14.322;2023-09-30T04:40:23;99709.41;;;16.68;74.91
80747;BME280;70144;50.218;14.322;2023-09-30T04:42:49;99693.25;;;16.61;73.40
80747;BME280;70144;50.218;14.322;2023-09-30T04:45:15;99691.19;;;16.67;73.39
80747;BME280;70144;50.218;14.322;2023-09-30T04:47:49;99690.59;;;16.56;72.95
80747;BME280;70144;50.218;14.322;2023-09-30T04:50:15;99708.09;;;16.65;73.81
80747;BME280;70144;50.218;14.322;2023-09-30T04:52:42;99715.97;;;16.58;72.88
80747;BME280;70144;50.218;14.322;2023-09-30T04:55:08;99725.47;;;16.52;71.87
80747;BME280;70144;50.218;14.322;2023-09-30T04:57:33;99724.56;;;16.43;72.18
80747;BME280;70144;50.218;14.322;2023-09-30T04:59:59;99735.94;;;16.28;72.00
80747;BME280;70144;50.218;14.322;2023-09-30T05:02:26;99722.72;;;16.11;73.00
80747;BME280;70144;50.218;14.322;2023-09-30T05:04:51;99734.19;;;16.05;72.41
80747;BME280;70144;50.218;14.322;2023-09-30T05:07:17;99763.41;;;16.06;73.24
80747;BME280;70144;50.218;14.322;2023-09-30T05:09:42;99779.66;;;15.94;74.02
80747;BME280;70144;50.218;14.322;2023-09-30T05:12:08;99788.75;;;15.94;74.42
80747;BME280;70144;50.218;14.322;2023-09-30T05:14:35;99791.28;;;15.91;74.19
80747;BME280;70144;50.218;14.322;2023-09-30T05:17:02;99786.31;;;15.93;75.49
80747;BME280;70144;50.218;14.322;2023-09-30T05:19:29;99795.75;;;15.73;76.66
80747;BME280;70144;50.218;14.322;2023-09-30T05:21:57;99791.13;;;15.68;76.40
80747;BME280;70144;50.218;14.322;2023-09-30T05:24:22;99795.63;;;15.64;77.34
80747;BME280;70144;50.218;14.322;2023-09-30T05:26:47;99799.72;;;15.67;76.82
80747;BME280;70144;50.218;14.322;2023-09-30T05:29:13;99788.47;;;15.63;77.15
80747;BME280;70144;50.218;14.322;2023-09-30T05:31:38;99796.66;;;15.68;76.31
80747;BME280;70144;50.218;14.322;2023-09-30T05:34:04;99798.00;;;15.71;76.18
80747;BME280;70144;50.218;14.322;2023-09-30T05:36:29;99802.09;;;15.73;75.14
80747;BME280;70144;50.218;14.322;2023-09-30T05:38:55;99782.81;;;15.55;75.74
80747;BME280;70144;50.218;14.322;2023-09-30T05:41:20;99784.38;;;15.42;75.57
80747;BME280;70144;50.218;14.322;2023-09-30T05:43:46;99798.56;;;15.54;75.56
80747;BME280;70144;50.218;14.322;2023-09-30T05:46:12;99802.75;;;15.52;75.78
80747;BME280;70144;50.218;14.322;2023-09-30T05:48:38;99809.66;;;15.49;75.50
80747;BME280;70144;50.218;14.322;2023-09-30T05:51:04;99794.06;;;15.40;76.04
80747;BME280;70144;50.218;14.322;2023-09-30T05:53:31;99808.56;;;15.50;76.03
80747;BME280;70144;50.218;14.322;2023-09-30T05:56:01;99815.75;;;15.65;75.64
80747;BME280;70144;50.218;14.322;2023-09-30T05:58:26;99822.03;;;15.70;75.34
80747;BME280;70144;50.218;14.322;2023-09-30T06:00:54;99823.59;;;15.58;74.97
80747;BME280;70144;50.218;14.322;2023-09-30T06:03:20;99818.47;;;15.51;74.30
80747;BME280;70144;50.218;14.322;2023-09-30T06:05:47;99821.66;;;15.58;74.92
80747;BME280;70144;50.218;14.322;2023-09-30T06:08:14;99818.31;;;15.61;73.63
80747;BME280;70144;50.218;14.322;2023-09-30T06:10:43;99822.28;;;15.55;73.34
80747;BME280;70144;50.218;14.322;2023-09-30T06:13:09;99815.53;;;15.61;74.24
80747;BME280;70144;50.218;14.322;2023-09-30T06:15:41;99822.84;;;15.71;73.52
80747;BME280;70144;50.218;14.322;2023-09-30T06:18:07;99812.78;;;15.61;73.08
80747;BME280;70144;50.218;14.322;2023-09-30T06:20:33;99823.13;;;15.69;73.16
80747;BME280;70144;50.218;14.322;2023-09-30T06:23:01;99829.50;;;15.83;71.94
80747;BME280;70144;50.218;14.322;2023-09-30T06:25:27;99828.00;;;15.91;70.84
80747;BME280;70144;50.218;14.322;2023-09-30T06:27:53;99837.06;;;15.78;70.04
80747;BME280;70144;50.218;14.322;2023-09-30T06:30:23;99832.63;;;15.63;69.20
80747;BME280;70144;50.218;14.322;2023-09-30T06:32:55;99798.00;;;15.33;68.76
80747;BME280;70144;50.218;14.322;2023-09-30T06:35:20;99828.28;;;15.57;68.87
80747;BME280;70144;50.218;14.322;2023-09-30T06:37:45;99797.34;;;15.42;68.37
80747;BME280;70144;50.218;14.322;2023-09-30T06:40:11;99853.56;;;15.64;68.28
80747;BME280;70144;50.218;14.322;2023-09-30T06:42:37;99858.88;;;15.61;67.56
80747;BME280;70144;50.218;14.322;2023-09-30T06:45:05;99853.28;;;15.66;68.29
80747;BME280;70144;50.218;14.322;2023-09-30T06:47:34;99857.16;;;15.65;68.12
80747;BME280;70144;50.218;14.322;2023-09-30T06:50:02;99864.53;;;15.69;67.82
80747;BME280;70144;50.218;14.322;2023-09-30T06:52:39;99865.66;;;15.50;67.34
80747;BME280;70144;50.218;14.322;2023-09-30T06:55:05;99864.47;;;15.56;66.18
80747;BME280;70144;50.218;14.322;2023-09-30T06:57:35;99873.47;;;15.61;66.22
80747;BME280;70144;50.218;14.322;2023-09-30T07:00:01;99866.84;;;15.62;65.64
80747;BME280;70144;50.218;14.322;2023-09-30T07:02:28;99844.94;;;15.52;65.46
80747;BME280;70144;50.218;14.322;2023-09-30T07:04:54;99897.03;;;15.72;64.22
80747;BME280;70144;50.218;14.322;2023-09-30T07:07:19;99889.59;;;15.73;63.67
80747;BME280;70144;50.218;14.322;2023-09-30T07:09:44;99896.75;;;15.74;63.40
80747;BME280;70144;50.218;14.322;2023-09-30T07:12:10;99905.84;;;15.74;61.97
80747;BME280;70144;50.218;14.322;2023-09-30T07:14:35;99901.06;;;15.61;63.71
80747;BME280;70144;50.218;14.322;2023-09-30T07:17:00;99906.59;;;15.61;63.01
80747;BME280;70144;50.218;14.322;2023-09-30T07:19:26;99918.06;;;15.68;62.16
80747;BME280;70144;50.218;14.322;2023-09-30T07:21:51;99923.59;;;15.68;61.78
80747;BME280;70144;50.218;14.322;2023-09-30T07:24:16;99938.75;;;15.71;61.49
80747;BME280;70144;50.218;14.322;2023-09-30T07:26:42;99941.56;;;15.66;60.85
80747;BME280;70144;50.218;14.322;2023-09-30T07:29:09;99939.69;;;15.61;62.02
80747;BME280;70144;50.218;14.322;2023-09-30T07:31:37;99938.66;;;15.57;61.26
80747;BME280;70144;50.218;14.322;2023-09-30T07:34:03;99933.25;;;15.47;62.43
80747;BME280;70144;50.218;14.322;2023-09-30T07:36:28;99952.84;;;15.46;60.80
80747;BME280;70144;50.218;14.322;2023-09-30T07:38:53;99942.19;;;15.39;63.04
80747;BME280;70144;50.218;14.322;2023-09-30T07:41:19;99957.91;;;15.38;61.88
80747;BME280;70144;50.218;14.322;2023-09-30T07:43:45;99957.97;;;15.33;61.40
80747;BME280;70144;50.218;14.322;2023-09-30T07:46:10;99950.88;;;15.27;61.69
80747;BME280;70144;50.218;14.322;2023-09-30T07:48:35;99926.06;;;15.27;62.28
80747;BME280;70144;50.218;14.322;2023-09-30T07:51:01;99944.16;;;15.57;61.57
80747;BME280;70144;50.218;14.322;2023-09-30T07:53:27;99965.16;;;15.77;61.23
80747;BME280;70144;50.218;14.322;2023-09-30T07:55:52;99948.41;;;15.87;61.59
80747;BME280;70144;50.218;14.322;2023-09-30T07:58:19;99939.47;;;15.95;60.38
80747;BME280;70144;50.218;14.322;2023-09-30T08:00:45;99958.75;;;16.14;60.61
80747;BME280;70144;50.218;14.322;2023-09-30T08:03:11;99958.34;;;16.07;60.45
80747;BME280;70144;50.218;14.322;2023-09-30T08:05:37;99962.22;;;16.24;60.13
80747;BME280;70144;50.218;14.322;2023-09-30T08:08:02;99965.72;;;16.44;59.01
80747;BME280;70144;50.218;14.322;2023-09-30T08:10:29;99946.38;;;16.44;59.55
80747;BME280;70144;50.218;14.322;2023-09-30T08:12:55;99955.00;;;16.42;59.45
80747;BME280;70144;50.218;14.322;2023-09-30T08:15:23;99949.03;;;16.35;59.70
80747;BME280;70144;50.218;14.322;2023-09-30T08:17:48;99958.16;;;16.36;61.68
80747;BME280;70144;50.218;14.322;2023-09-30T08:20:13;99965.22;;;16.42;59.24
80747;BME280;70144;50.218;14.322;2023-09-30T08:22:39;99964.19;;;16.51;59.89
80747;BME280;70144;50.218;14.322;2023-09-30T08:25:06;99965.19;;;16.60;59.32
80747;BME280;70144;50.218;14.322;2023-09-30T08:27:32;99973.63;;;16.50;58.21
80747;BME280;70144;50.218;14.322;2023-09-30T08:29:57;99963.34;;;16.37;58.05
80747;BME280;70144;50.218;14.322;2023-09-30T08:32:22;99975.25;;;16.51;58.28
80747;BME280;70144;50.218;14.322;2023-09-30T08:34:48;99971.91;;;16.54;59.14
80747;BME280;70144;50.218;14.322;2023-09-30T08:37:14;99979.44;;;16.67;58.90
80747;BME280;70144;50.218;14.322;2023-09-30T08:39:40;99971.38;;;16.52;58.15
80747;BME280;70144;50.218;14.322;2023-09-30T08:42:09;99984.13;;;16.67;55.84
80747;BME280;70144;50.218;14.322;2023-09-30T08:44:39;99985.69;;;16.73;57.88
80747;BME280;70144;50.218;14.322;2023-09-30T08:47:06;99983.28;;;16.85;56.72
80747;BME280;70144;50.218;14.322;2023-09-30T08:49:37;99973.22;;;16.75;55.55
80747;BME280;70144;50.218;14.322;2023-09-30T08:52:05;99983.47;;;17.02;56.41
80747;BME280;70144;50.218;14.322;2023-09-30T08:54:31;99964.75;;;17.26;54.43
80747;BME280;70144;50.218;14.322;2023-09-30T08:56:57;99964.72;;;17.40;54.40
80747;BME280;70144;50.218;14.322;2023-09-30T08:59:22;99961.22;;;17.48;53.28
80747;BME280;70144;50.218;14.322;2023-09-30T09:01:49;99968.50;;;17.44;54.17
80747;BME280;70144;50.218;14.322;2023-09-30T09:04:14;99976.09;;;17.52;55.55
80747;BME280;70144;50.218;14.322;2023-09-30T09:06:40;99972.47;;;17.79;51.65
80747;BME280;70144;50.218;14.322;2023-09-30T09:09:18;99987.50;;;18.22;51.90
80747;BME280;70144;50.218;14.322;2023-09-30T09:11:45;99984.44;;;18.24;50.79
80747;BME280;70144;50.218;14.322;2023-09-30T09:14:11;99980.38;;;18.08;50.06
80747;BME280;70144;50.218;14.322;2023-09-30T09:16:36;99981.25;;;18.53;50.52
80747;BME280;70144;50.218;14.322;2023-09-30T09:19:14;99972.00;;;18.88;48.82
80747;BME280;70144;50.218;14.322;2023-09-30T09:21:58;99981.06;;;19.50;47.62
80747;BME280;70144;50.218;14.322;2023-09-30T09:24:31;99986.72;;;19.93;46.41
80747;BME280;70144;50.218;14.322;2023-09-30T09:27:10;99995.00;;;19.76;44.92
80747;BME280;70144;50.218;14.322;2023-09-30T09:29:37;99981.34;;;20.31;45.85
80747;BME280;70144;50.218;14.322;2023-09-30T09:32:20;99985.66;;;20.92;45.71
80747;BME280;70144;50.218;14.322;2023-09-30T09:35:00;99992.97;;;21.73;43.60
80747;BME280;70144;50.218;14.322;2023-09-30T09:37:25;99993.81;;;22.03;39.49
80747;BME280;70144;50.218;14.322;2023-09-30T09:39:54;100002.16;;;22.23;39.16
80747;BME280;70144;50.218;14.322;2023-09-30T09:42:31;99994.56;;;22.65;38.52
80747;BME280;70144;50.218;14.322;2023-09-30T09:45:00;99997.66;;;22.84;36.94
80747;BME280;70144;50.218;14.322;2023-09-30T09:47:26;100003.94;;;23.75;37.33
80747;BME280;70144;50.218;14.322;2023-09-30T09:49:52;100004.34;;;24.13;37.65
80747;BME280;70144;50.218;14.322;2023-09-30T09:52:18;100015.31;;;23.94;36.95
80747;BME280;70144;50.218;14.322;2023-09-30T09:54:45;100012.03;;;24.16;35.42
80747;BME280;70144;50.218;14.322;2023-09-30T09:57:11;99997.63;;;24.14;35.54
80747;BME280;70144;50.218;14.322;2023-09-30T09:59:38;99999.13;;;24.52;35.52
80747;BME280;70144;50.218;14.322;2023-09-30T10:02:10;99989.88;;;25.07;37.56
80747;BME280;70144;50.218;14.322;2023-09-30T10:04:36;99978.22;;;25.20;35.04
80747;BME280;70144;50.218;14.322;2023-09-30T10:07:03;99964.69;;;25.22;32.89
80747;BME280;70144;50.218;14.322;2023-09-30T10:09:33;99977.03;;;25.06;33.41
80747;BME280;70144;50.218;14.322;2023-09-30T10:12:00;99982.56;;;25.34;37.92
80747;BME280;70144;50.218;14.322;2023-09-30T10:14:33;99979.94;;;25.09;37.56
80747;BME280;70144;50.218;14.322;2023-09-30T10:16:59;99975.13;;;25.57;33.82
80747;BME280;70144;50.218;14.322;2023-09-30T10:19:24;99980.03;;;25.13;32.18
80747;BME280;70144;50.218;14.322;2023-09-30T10:24:55;99992.78;;;25.92;33.67
80747;BME280;70144;50.218;14.322;2023-09-30T10:35:17;99993.75;;;26.00;30.13
80747;BME280;70144;50.218;14.322;2023-09-30T10:37:43;99983.38;;;25.03;35.47
80747;BME280;70144;50.218;14.322;2023-09-30T10:40:09;99994.84;;;25.45;31.07
80747;BME280;70144;50.218;14.322;2023-09-30T10:42:50;99990.34;;;26.64;28.71
80747;BME280;70144;50.218;14.322;2023-09-30T10:50:52;99987.88;;;28.55;28.15
80747;BME280;70144;50.218;14.322;2023-09-30T10:53:18;99977.72;;;28.80;24.83
80747;BME280;70144;50.218;14.322;2023-09-30T10:55:54;99975.09;;;28.61;25.11
80747;BME280;70144;50.218;14.322;2023-09-30T10:58:20;99985.84;;;28.52;26.45
80747;BME280;70144;50.218;14.322;2023-09-30T11:00:55;99992.31;;;28.56;25.39
80747;BME280;70144;50.218;14.322;2023-09-30T11:03:21;99992.88;;;29.46;24.13
80747;BME280;70144;50.218;14.322;2023-09-30T11:05:50;99986.06;;;29.47;25.01
80747;BME280;70144;50.218;14.322;2023-09-30T11:08:21;99984.56;;;30.22;23.61
80747;BME280;70144;50.218;14.322;2023-09-30T11:10:48;99982.72;;;30.54;22.96
80747;BME280;70144;50.218;14.322;2023-09-30T11:13:16;99982.97;;;30.21;23.58
80747;BME280;70144;50.218;14.322;2023-09-30T11:15:41;99977.53;;;29.94;24.29
80747;BME280;70144;50.218;14.322;2023-09-30T11:18:17;99991.63;;;29.91;26.04
80747;BME280;70144;50.218;14.322;2023-09-30T11:20:44;99986.16;;;30.16;24.66
80747;BME280;70144;50.218;14.322;2023-09-30T11:23:10;99986.41;;;29.01;25.66
80747;BME280;70144;50.218;14.322;2023-09-30T11:25:37;99971.16;;;29.50;24.52
80747;BME280;70144;50.218;14.322;2023-09-30T11:28:16;99979.25;;;31.24;23.32
80747;BME280;70144;50.218;14.322;2023-09-30T11:30:58;99984.44;;;32.28;21.82
80747;BME280;70144;50.218;14.322;2023-09-30T11:33:24;99973.03;;;33.22;20.98
80747;BME280;70144;50.218;14.322;2023-09-30T11:36:04;99962.66;;;32.98;19.26
80747;BME280;70144;50.218;14.322;2023-09-30T11:38:31;99957.59;;;33.75;18.92
80747;BME280;70144;50.218;14.322;2023-09-30T11:41:01;99951.63;;;33.62;18.91
80747;BME280;70144;50.218;14.322;2023-09-30T11:43:28;99954.25;;;33.39;18.68
80747;BME280;70144;50.218;14.322;2023-09-30T11:46:06;99944.19;;;33.75;19.64
80747;BME280;70144;50.218;14.322;2023-09-30T11:48:34;99956.75;;;34.49;19.23
80747;BME280;70144;50.218;14.322;2023-09-30T11:51:00;99937.34;;;34.75;18.57
80747;BME280;70144;50.218;14.322;2023-09-30T11:53:31;99947.50;;;34.76;18.76
80747;BME280;70144;50.218;14.322;2023-09-30T11:56:00;99929.38;;;34.32;18.34
80747;BME280;70144;50.218;14.322;2023-09-30T11:58:28;99950.97;;;35.40;17.71
80747;BME280;70144;50.218;14.322;2023-09-30T12:00:58;99931.03;;;35.17;16.29
80747;BME280;70144;50.218;14.322;2023-09-30T12:03:25;99946.00;;;35.91;17.46
80747;BME280;70144;50.218;14.322;2023-09-30T12:05:53;99940.63;;;35.73;15.74
80747;BME280;70144;50.218;14.322;2023-09-30T12:08:21;99933.06;;;34.90;17.91
80747;BME280;70144;50.218;14.322;2023-09-30T12:10:47;99923.59;;;33.68;18.78
80747;BME280;70144;50.218;14.322;2023-09-30T12:13:12;99925.69;;;33.16;18.47
80747;BME280;70144;50.218;14.322;2023-09-30T12:15:37;99916.19;;;33.37;19.04
80747;BME280;70144;50.218;14.322;2023-09-30T12:18:03;99929.31;;;33.16;17.85
80747;BME280;70144;50.218;14.322;2023-09-30T12:20:29;99933.88;;;32.23;18.81
80747;BME280;70144;50.218;14.322;2023-09-30T12:22:56;99921.13;;;33.29;19.70
80747;BME280;70144;50.218;14.322;2023-09-30T12:25:21;99919.47;;;33.76;18.39
80747;BME280;70144;50.218;14.322;2023-09-30T12:27:48;99917.00;;;32.82;17.66
80747;BME280;70144;50.218;14.322;2023-09-30T12:30:13;99925.53;;;34.15;17.37
80747;BME280;70144;50.218;14.322;2023-09-30T12:32:40;99899.25;;;33.70;17.88
80747;BME280;70144;50.218;14.322;2023-09-30T12:35:06;99907.41;;;33.20;17.55
80747;BME280;70144;50.218;14.322;2023-09-30T12:37:31;99897.19;;;34.42;16.50
80747;BME280;70144;50.218;14.322;2023-09-30T12:39:57;99905.09;;;33.01;16.60
80747;BME280;70144;50.218;14.322;2023-09-30T12:42:23;99882.91;;;33.82;16.81
80747;BME280;70144;50.218;14.322;2023-09-30T12:44:48;99923.72;;;35.16;17.47
80747;BME280;70144;50.218;14.322;2023-09-30T12:47:13;99906.34;;;35.80;15.29
80747;BME280;70144;50.218;14.322;2023-09-30T12:49:39;99920.03;;;36.28;15.44
80747;BME280;70144;50.218;14.322;2023-09-30T12:52:04;99910.94;;;35.01;15.02
80747;BME280;70144;50.218;14.322;2023-09-30T12:54:30;99912.97;;;35.50;16.80
80747;BME280;70144;50.218;14.322;2023-09-30T12:56:55;99914.22;;;35.92;15.65
80747;BME280;70144;50.218;14.322;2023-09-30T12:59:21;99910.44;;;35.56;16.11
80747;BME280;70144;50.218;14.322;2023-09-30T13:01:50;99904.50;;;35.47;16.12
80747;BME280;70144;50.218;14.322;2023-09-30T13:04:15;99910.38;;;36.02;15.00
80747;BME280;70144;50.218;14.322;2023-09-30T13:06:41;99904.13;;;34.95;16.72
80747;BME280;70144;50.218;14.322;2023-09-30T13:09:06;99893.75;;;34.85;15.47